Time;durP1;ratioP1;P1;durP2;ratioP2;P2;SDS_P1;SDS_P2;PMS_P1;PMS_P2;Temp;Humidity;BMP_temperature;BMP_pressure;BME280_temperature;BME280_humidity;BME280_pressure;Samples;Min_cycle;Max_cycle;Signal;HPM_P1;HPM_P2
2023/06/15 00:01:22;;;;;;;4.78;2.83;;;16.90;99.90;;;;;;5031794;28;20077;-64
2023/06/15 00:03:48;;;;;;;5.90;2.58;;;16.90;99.90;;;;;;5031053;28;20041;-63
2023/06/15 00:06:13;;;;;;;4.32;2.58;;;16.90;99.90;;;;;;5031100;28;20038;-64
2023/06/15 00:08:40;;;;;;;5.57;2.72;;;16.90;99.90;;;;;;5031913;28;20128;-64
2023/06/15 00:11:05;;;;;;;8.18;2.67;;;16.80;99.90;;;;;;5031827;28;20041;-64
2023/06/15 00:13:31;;;;;;;5.55;2.60;;;16.70;99.90;;;;;;5031618;28;20412;-64
2023/06/15 00:15:57;;;;;;;5.70;2.78;;;16.70;99.90;;;;;;5031524;28;20037;-63
2023/06/15 00:18:22;;;;;;;6.40;3.10;;;16.80;99.90;;;;;;5031547;28;20046;-64
2023/06/15 00:20:48;;;;;;;7.50;3.15;;;16.70;99.90;;;;;;5031259;28;20038;-64
2023/06/15 00:23:17;;;;;;;7.38;3.13;;;16.70;99.90;;;;;;5031610;28;20043;-64
2023/06/15 00:25:43;;;;;;;4.57;2.63;;;16.70;99.90;;;;;;5031424;28;20519;-64
2023/06/15 00:28:08;;;;;;;4.70;2.80;;;16.60;99.90;;;;;;5031356;28;20053;-64
2023/06/15 00:30:34;;;;;;;4.80;2.80;;;16.60;99.90;;;;;;5031583;28;20037;-64
2023/06/15 00:32:59;;;;;;;3.60;2.28;;;16.60;99.90;;;;;;5031542;28;20041;-63
2023/06/15 00:35:25;;;;;;;4.97;2.58;;;16.50;99.90;;;;;;5031072;28;20046;-64
2023/06/15 00:37:51;;;;;;;5.20;3.58;;;16.60;99.90;;;;;;5031538;28;20064;-64
2023/06/15 00:40:16;;;;;;;5.40;2.70;;;16.50;99.90;;;;;;5031585;28;20034;-64
2023/06/15 00:42:44;;;;;;;4.82;2.92;;;16.60;99.90;;;;;;5013766;28;20042;-64
2023/06/15 00:45:10;;;;;;;6.20;2.85;;;16.50;99.90;;;;;;5031101;28;20046;-64
2023/06/15 00:47:39;;;;;;;5.80;3.00;;;16.50;99.90;;;;;;5015114;28;20459;-64
2023/06/15 00:50:09;;;;;;;7.00;3.00;;;16.40;99.90;;;;;;5034836;28;20492;-64
2023/06/15 00:52:35;;;;;;;6.07;2.90;;;16.40;99.90;;;;;;5035126;28;20037;-64
2023/06/15 00:55:03;;;;;;;4.57;3.22;;;16.40;99.90;;;;;;5034840;28;20129;-64
2023/06/15 00:57:30;;;;;;;4.72;2.83;;;16.30;99.90;;;;;;5034771;28;20045;-64
2023/06/15 00:59:56;;;;;;;5.70;3.17;;;16.30;99.90;;;;;;5017183;28;20053;-64
2023/06/15 01:02:24;;;;;;;6.70;3.70;;;16.20;99.90;;;;;;5034822;28;20729;-64
2023/06/15 01:04:50;;;;;;;6.38;3.20;;;16.30;99.90;;;;;;5034673;28;20042;-63
2023/06/15 01:07:16;;;;;;;6.50;3.05;;;16.20;99.90;;;;;;5034747;28;20045;-63
2023/06/15 01:09:43;;;;;;;4.50;3.28;;;16.10;99.90;;;;;;5034787;28;20053;-64
2023/06/15 01:12:14;;;;;;;6.20;3.50;;;16.10;99.90;;;;;;5034638;28;20049;-64
2023/06/15 01:14:40;;;;;;;;;;;16.10;99.90;;;;;;5034857;28;20045;-64
2023/06/15 01:17:23;;;;;;;5.70;3.20;;;16.10;99.90;;;;;;5034339;28;19972;-64
2023/06/15 01:19:54;;;;;;;7.20;3.58;;;16.10;99.90;;;;;;5034640;28;20152;-64
2023/06/15 01:22:41;;;;;;;5.82;3.35;;;16.10;99.90;;;;;;5034704;28;20037;-64
2023/06/15 01:25:26;;;;;;;6.63;3.60;;;16.10;99.90;;;;;;5034063;28;20075;-63
2023/06/15 01:27:59;;;;;;;11.80;3.85;;;16.10;99.90;;;;;;5034379;28;20396;-64
2023/06/15 01:30:27;;;;;;;10.43;3.65;;;16.10;99.90;;;;;;5034334;28;20499;-64
2023/06/15 01:32:56;;;;;;;7.55;3.72;;;16.10;99.90;;;;;;5034324;28;20558;-63
2023/06/15 01:35:21;;;;;;;5.95;3.28;;;16.00;99.90;;;;;;5033841;28;20049;-64
2023/06/15 01:37:47;;;;;;;7.47;3.58;;;16.10;99.90;;;;;;5033668;28;20171;-63
2023/06/15 01:40:13;;;;;;;6.97;3.67;;;16.10;99.90;;;;;;5034394;28;20479;-63
2023/06/15 01:42:40;;;;;;;5.80;3.80;;;16.00;99.90;;;;;;5015887;28;20089;-64
2023/06/15 01:45:07;;;;;;;5.00;3.50;;;16.10;99.90;;;;;;5015918;28;20511;-64
2023/06/15 01:47:33;;;;;;;8.55;4.13;;;16.00;99.90;;;;;;5033686;28;20045;-64
2023/06/15 01:50:00;;;;;;;7.00;3.67;;;16.00;99.90;;;;;;5034017;28;20042;-64
2023/06/15 01:52:26;;;;;;;9.00;4.03;;;15.90;99.90;;;;;;5033210;28;20488;-64
2023/06/15 01:54:51;;;;;;;7.03;3.50;;;15.90;99.90;;;;;;5033806;28;20044;-64
2023/06/15 01:57:21;;;;;;;5.55;3.58;;;15.80;99.90;;;;;;5033419;28;20037;-65
2023/06/15 01:59:47;;;;;;;6.03;3.47;;;15.80;99.90;;;;;;5032662;28;20048;-64
2023/06/15 02:02:13;;;;;;;6.20;3.80;;;15.80;99.90;;;;;;5028258;28;20029;-64
2023/06/15 02:04:38;;;;;;;6.35;3.63;;;15.70;99.90;;;;;;5028388;28;20483;-65
2023/06/15 02:07:04;;;;;;;5.80;3.42;;;15.70;99.90;;;;;;5033399;28;20037;-64
2023/06/15 02:09:30;;;;;;;5.45;3.83;;;15.70;99.90;;;;;;5033333;28;20034;-64
2023/06/15 02:11:57;;;;;;;7.75;3.55;;;15.70;99.90;;;;;;5015431;28;20099;-64
2023/06/15 02:14:23;;;;;;;7.68;3.40;;;15.70;99.90;;;;;;5033277;28;20080;-64
2023/06/15 02:16:49;;;;;;;7.93;3.60;;;15.50;99.90;;;;;;5031963;28;20045;-64
2023/06/15 02:19:22;;;;;;;6.10;3.80;;;15.60;99.90;;;;;;5033388;28;20124;-64
2023/06/15 02:21:49;;;;;;;6.60;3.97;;;15.50;99.90;;;;;;5033164;28;20037;-64
2023/06/15 02:24:16;;;;;;;9.70;3.63;;;15.50;99.90;;;;;;5033244;28;20041;-64
2023/06/15 02:26:42;;;;;;;7.32;3.60;;;15.50;99.90;;;;;;5015624;28;20042;-64
2023/06/15 02:29:08;;;;;;;6.28;3.45;;;15.50;99.90;;;;;;5033227;28;20080;-64
2023/06/15 02:31:33;;;;;;;7.43;3.80;;;15.50;99.90;;;;;;5033170;28;20041;-64
2023/06/15 02:33:59;;;;;;;7.38;3.15;;;15.50;99.90;;;;;;5032389;28;20049;-64
2023/06/15 02:36:26;;;;;;;8.05;4.35;;;15.40;99.90;;;;;;5015096;28;20053;-64
2023/06/15 02:38:51;;;;;;;9.80;3.70;;;15.40;99.90;;;;;;5015606;28;20049;-64
2023/06/15 02:41:17;;;;;;;6.72;3.85;;;15.40;99.90;;;;;;5032954;28;20041;-64
2023/06/15 02:43:43;;;;;;;7.25;3.65;;;15.40;99.90;;;;;;5032300;28;20487;-64
2023/06/15 02:46:08;;;;;;;5.60;3.53;;;15.40;99.90;;;;;;5015111;28;20491;-64
2023/06/15 02:48:34;;;;;;;7.57;3.58;;;15.40;99.90;;;;;;5032213;28;20060;-64
2023/06/15 02:51:00;;;;;;;9.10;3.60;;;15.40;99.90;;;;;;5032149;28;20048;-64
2023/06/15 02:53:26;;;;;;;6.75;4.03;;;15.40;99.90;;;;;;5032400;28;20068;-64
2023/06/15 02:55:52;;;;;;;7.82;3.83;;;15.40;99.90;;;;;;5032899;28;20497;-64
2023/06/15 02:58:20;;;;;;;8.32;3.72;;;15.40;99.90;;;;;;5032445;28;20112;-64
2023/06/15 03:00:51;;;;;;;6.15;3.80;;;15.40;99.90;;;;;;5032607;28;20056;-64
2023/06/15 03:03:22;;;;;;;;;;;15.30;99.90;;;;;;5015232;28;20073;-64
2023/06/15 03:05:51;;;;;;;8.35;4.03;;;15.20;99.90;;;;;;5032732;28;19987;-64
2023/06/15 03:08:18;;;;;;;8.00;4.18;;;15.20;99.90;;;;;;5032402;28;20087;-64
2023/06/15 03:10:44;;;;;;;8.63;4.07;;;15.30;99.90;;;;;;5013909;28;20045;-64
2023/06/15 03:13:10;;;;;;;8.15;4.13;;;15.30;99.90;;;;;;5014611;28;20042;-64
2023/06/15 03:15:36;;;;;;;7.53;3.70;;;15.30;99.90;;;;;;4998167;28;20076;-64
2023/06/15 03:18:04;;;;;;;6.45;3.92;;;15.20;99.90;;;;;;5031967;28;20038;-64
2023/06/15 03:20:32;;;;;;;7.70;3.65;;;15.20;99.90;;;;;;5032499;28;20044;-64
2023/06/15 03:23:01;;;;;;;8.70;3.72;;;15.20;99.90;;;;;;5031787;28;20052;-65
2023/06/15 03:25:29;;;;;;;8.32;4.03;;;15.20;99.90;;;;;;5031965;28;20391;-64
2023/06/15 03:27:59;;;;;;;6.75;3.85;;;15.20;99.90;;;;;;5031581;28;20239;-64
2023/06/15 03:30:26;;;;;;;8.52;4.13;;;15.20;99.90;;;;;;5014628;28;20635;-64
2023/06/15 03:32:53;;;;;;;6.47;4.28;;;15.20;99.90;;;;;;5014361;28;20045;-64
2023/06/15 03:35:20;;;;;;;7.78;3.85;;;15.10;99.90;;;;;;5032074;28;20080;-64
2023/06/15 03:37:46;;;;;;;7.75;4.32;;;15.10;99.90;;;;;;5014341;28;20053;-64
2023/06/15 03:40:12;;;;;;;9.75;4.10;;;15.10;99.90;;;;;;5014344;28;20041;-64
2023/06/15 03:42:37;;;;;;;6.43;4.03;;;15.10;99.90;;;;;;5031973;28;20045;-64
2023/06/15 03:45:04;;;;;;;7.28;3.85;;;15.10;99.90;;;;;;5031460;28;20408;-64
2023/06/15 03:47:32;;;;;;;7.97;4.25;;;15.10;99.90;;;;;;5014271;28;20120;-64
2023/06/15 03:49:57;;;;;;;7.05;4.10;;;15.00;99.90;;;;;;5031943;28;20430;-64
2023/06/15 03:52:25;;;;;;;7.93;3.95;;;15.00;99.90;;;;;;5032333;28;20037;-64
2023/06/15 03:54:51;;;;;;;7.63;4.30;;;14.90;99.90;;;;;;5014221;28;20417;-64
2023/06/15 03:57:17;;;;;;;6.57;4.38;;;14.90;99.90;;;;;;5030878;28;20041;-64
2023/06/15 03:59:43;;;;;;;8.40;4.65;;;14.80;99.90;;;;;;5059170;22;20414;-64
2023/06/15 04:02:09;;;;;;;8.52;4.25;;;14.80;99.90;;;;;;5042317;28;20053;-64
2023/06/15 04:04:34;;;;;;;8.18;4.13;;;14.80;99.90;;;;;;5041436;28;20059;-64
2023/06/15 04:07:00;;;;;;;8.30;4.38;;;14.80;99.90;;;;;;5031763;28;20033;-64
2023/06/15 04:09:26;;;;;;;7.25;4.72;;;14.80;99.90;;;;;;5031250;28;20037;-65
2023/06/15 04:11:51;;;;;;;10.00;4.60;;;14.70;99.90;;;;;;5031811;28;20099;-64
2023/06/15 04:14:18;;;;;;;7.55;4.68;;;14.80;99.90;;;;;;5031077;28;20041;-64
2023/06/15 04:16:44;;;;;;;8.88;4.70;;;14.80;99.90;;;;;;5031530;28;20483;-64
2023/06/15 04:19:10;;;;;;;7.35;4.90;;;14.80;99.90;;;;;;5031395;28;20052;-64
2023/06/15 04:21:36;;;;;;;7.50;4.40;;;14.90;99.90;;;;;;5031427;28;20415;-64
2023/06/15 04:24:02;;;;;;;7.47;4.43;;;14.90;99.90;;;;;;5033867;28;20459;-64
2023/06/15 04:26:29;;;;;;;10.05;4.75;;;14.90;99.90;;;;;;5035678;28;20038;-64
2023/06/15 04:28:58;;;;;;;7.70;4.47;;;15.00;99.90;;;;;;5052143;28;20505;-64
2023/06/15 04:31:24;;;;;;;8.40;5.25;;;15.10;99.90;;;;;;5054807;28;20040;-64
2023/06/15 04:33:58;;;;;;;13.23;4.80;;;15.10;99.90;;;;;;5054768;28;20508;-64
2023/06/15 04:36:24;;;;;;;9.57;4.70;;;15.10;99.90;;;;;;5054362;28;20041;-64
2023/06/15 04:38:50;;;;;;;8.32;4.95;;;15.10;99.90;;;;;;5054645;28;20544;-65
2023/06/15 04:41:22;;;;;;;6.60;4.80;;;15.20;99.90;;;;;;5055256;28;20033;-65
2023/06/15 04:43:48;;;;;;;10.38;5.43;;;15.20;99.90;;;;;;5054409;28;20446;-64
2023/06/15 04:46:15;;;;;;;8.10;4.78;;;15.20;99.90;;;;;;5053480;28;20041;-64
2023/06/15 04:48:44;;;;;;;7.07;4.78;;;15.30;99.90;;;;;;5053301;28;20083;-64
2023/06/15 04:51:10;;;;;;;8.90;4.97;;;15.40;99.90;;;;;;5055163;28;20068;-64
2023/06/15 04:53:36;;;;;;;10.20;5.00;;;15.40;99.90;;;;;;5054798;28;20040;-65
2023/06/15 04:56:01;;;;;;;6.97;4.82;;;15.50;99.90;;;;;;5054948;28;20379;-64
2023/06/15 04:58:27;;;;;;;10.68;5.25;;;15.60;99.90;;;;;;5054445;28;20051;-64
2023/06/15 05:00:53;;;;;;;6.28;4.95;;;15.70;99.90;;;;;;5055130;28;20091;-64
2023/06/15 05:03:18;;;;;;;6.57;4.40;;;15.80;99.90;;;;;;5053338;28;20064;-64
2023/06/15 05:05:44;;;;;;;8.70;4.88;;;15.80;99.90;;;;;;5054785;28;20033;-64
2023/06/15 05:08:12;;;;;;;11.60;5.10;;;15.90;99.90;;;;;;5054501;28;20055;-64
2023/06/15 05:10:37;;;;;;;9.57;4.47;;;16.10;99.90;;;;;;5054695;28;20041;-64
2023/06/15 05:13:03;;;;;;;9.60;5.03;;;16.20;99.90;;;;;;5053659;28;20033;-64
2023/06/15 05:15:29;;;;;;;9.80;4.72;;;16.30;99.90;;;;;;5054600;28;20041;-64
2023/06/15 05:17:54;;;;;;;8.32;4.53;;;16.40;99.90;;;;;;5054488;28;20523;-64
2023/06/15 05:20:21;;;;;;;7.10;4.32;;;16.50;99.90;;;;;;5052909;28;20050;-64
2023/06/15 05:22:47;;;;;;;9.40;4.88;;;16.60;99.90;;;;;;5054100;28;20072;-64
2023/06/15 05:25:12;;;;;;;7.07;4.50;;;16.70;99.90;;;;;;5054170;28;20080;-64
2023/06/15 05:27:38;;;;;;;8.75;4.22;;;16.80;99.90;;;;;;5054029;28;20112;-64
2023/06/15 05:30:11;;;;;;;6.70;4.53;;;16.80;99.90;;;;;;5054361;28;20388;-64
2023/06/15 05:32:38;;;;;;;7.95;4.10;;;17.00;99.90;;;;;;5054287;28;20048;-64
2023/06/15 05:35:08;;;;;;;5.30;3.90;;;17.30;99.90;;;;;;5052654;28;20553;-64
2023/06/15 05:37:37;;;;;;;8.70;4.38;;;17.40;99.90;;;;;;5053621;28;20071;-64
2023/06/15 05:40:04;;;;;;;8.60;4.25;;;17.70;99.90;;;;;;5053708;28;20045;-64
2023/06/15 05:42:30;;;;;;;6.82;3.83;;;17.70;99.90;;;;;;5054141;28;20091;-65
2023/06/15 05:44:56;;;;;;;6.38;4.22;;;17.80;99.90;;;;;;5053466;28;20409;-64
2023/06/15 05:47:22;;;;;;;8.85;4.20;;;17.90;99.90;;;;;;5053905;28;20498;-64
2023/06/15 05:49:47;;;;;;;6.38;4.30;;;18.00;99.90;;;;;;5053459;28;20037;-64
2023/06/15 05:52:14;;;;;;;5.22;3.80;;;18.00;99.90;;;;;;5053960;28;20047;-65
2023/06/15 05:54:42;;;;;;;9.13;4.28;;;18.00;99.90;;;;;;5052964;28;20041;-64
2023/06/15 05:57:09;;;;;;;10.73;4.05;;;18.10;99.90;;;;;;5053692;28;20494;-65
2023/06/15 05:59:35;;;;;;;7.35;3.65;;;18.10;99.90;;;;;;5051903;28;20514;-64
2023/06/15 06:02:01;;;;;;;6.97;3.67;;;18.10;99.90;;;;;;5052369;28;20048;-64
2023/06/15 06:04:27;;;;;;;7.03;3.30;;;18.30;99.90;;;;;;5053095;28;20078;-64
2023/06/15 06:06:53;;;;;;;7.20;3.40;;;18.30;99.90;;;;;;5053596;28;20041;-64
2023/06/15 06:09:18;;;;;;;5.78;3.40;;;18.50;99.90;;;;;;5053237;28;20048;-64
2023/06/15 06:11:47;;;;;;;9.70;3.65;;;18.50;99.90;;;;;;5053419;28;20037;-65
2023/06/15 06:14:13;;;;;;;8.02;3.30;;;18.60;99.90;;;;;;5053025;28;20048;-65
2023/06/15 06:16:39;;;;;;;8.90;3.53;;;18.80;99.90;;;;;;5053612;28;20483;-65
2023/06/15 06:19:05;;;;;;;5.90;3.50;;;18.90;99.90;;;;;;5052551;28;20103;-65
2023/06/15 06:21:32;;;;;;;7.65;3.38;;;19.10;99.90;;;;;;5053367;28;20041;-64
2023/06/15 06:23:58;;;;;;;6.88;3.00;;;19.00;99.90;;;;;;5053086;28;20441;-65
2023/06/15 06:26:23;;;;;;;4.75;3.28;;;19.10;99.90;;;;;;5053182;28;20048;-64
2023/06/15 06:28:49;;;;;;;6.82;3.53;;;19.20;99.60;;;;;;5052678;28;20036;-65
2023/06/15 06:31:15;;;;;;;7.38;3.72;;;19.20;99.10;;;;;;5053309;28;20155;-64
2023/06/15 06:33:40;;;;;;;10.00;4.10;;;19.30;99.10;;;;;;5052854;28;20430;-64
2023/06/15 06:36:08;;;;;;;7.07;3.13;;;19.40;98.50;;;;;;5053071;28;20079;-64
2023/06/15 06:38:34;;;;;;;8.60;3.42;;;19.50;97.50;;;;;;5052795;28;20037;-64
2023/06/15 06:41:00;;;;;;;7.95;3.10;;;19.70;96.90;;;;;;5053009;28;20167;-65
2023/06/15 06:43:26;;;;;;;9.45;2.97;;;19.80;96.50;;;;;;5051866;28;20079;-64
2023/06/15 06:45:51;;;;;;;7.13;2.88;;;19.90;96.10;;;;;;5052580;28;20069;-65
2023/06/15 06:48:17;;;;;;;8.50;3.13;;;20.10;95.60;;;;;;5052759;28;20035;-64
2023/06/15 06:50:43;;;;;;;7.63;3.40;;;20.30;95.10;;;;;;5051465;28;20522;-65
2023/06/15 06:53:09;;;;;;;9.75;3.42;;;20.50;95.20;;;;;;5052505;28;20086;-64
2023/06/15 06:55:35;;;;;;;6.15;3.08;;;20.60;95.40;;;;;;5052654;28;20044;-64
2023/06/15 06:58:01;;;;;;;6.05;3.22;;;20.70;95.50;;;;;;5052578;28;20037;-65
2023/06/15 07:00:30;;;;;;;6.88;3.35;;;20.60;94.60;;;;;;5051659;28;20426;-65
2023/06/15 07:02:56;;;;;;;8.45;3.45;;;20.70;94.70;;;;;;5052509;28;20068;-65
2023/06/15 07:05:22;;;;;;;6.68;3.13;;;20.80;94.60;;;;;;5051722;28;20037;-64
2023/06/15 07:07:47;;;;;;;6.10;3.55;;;20.80;94.70;;;;;;5052330;28;20047;-65
2023/06/15 07:10:13;;;;;;;6.75;3.58;;;20.90;94.10;;;;;;5052471;28;20033;-65
2023/06/15 07:12:39;;;;;;;7.22;3.33;;;21.10;94.10;;;;;;5051178;28;20462;-65
2023/06/15 07:15:06;;;;;;;6.97;2.90;;;21.10;94.00;;;;;;5052171;28;20040;-65
2023/06/15 07:17:32;;;;;;;5.60;3.00;;;21.20;92.90;;;;;;5052181;28;20037;-65
2023/06/15 07:19:57;;;;;;;6.75;3.25;;;21.20;91.80;;;;;;5052021;28;20055;-64
2023/06/15 07:22:23;;;;;;;5.78;3.35;;;21.20;91.20;;;;;;5052132;28;20041;-65
2023/06/15 07:24:52;;;;;;;6.22;3.28;;;21.30;90.60;;;;;;5051853;28;20041;-65
2023/06/15 07:27:18;;;;;;;5.72;3.08;;;21.50;90.20;;;;;;5050797;28;20529;-65
2023/06/15 07:29:44;;;;;;;11.23;3.53;;;21.60;89.30;;;;;;5051927;28;20498;-65
2023/06/15 07:32:10;;;;;;;9.32;2.83;;;21.70;87.60;;;;;;5052172;28;20087;-65
2023/06/15 07:34:36;;;;;;;6.68;2.95;;;21.90;86.60;;;;;;5051473;28;20064;-64
2023/06/15 07:37:02;;;;;;;6.00;3.10;;;21.90;86.50;;;;;;5052289;28;20029;-65
2023/06/15 07:39:28;;;;;;;6.75;3.10;;;22.10;85.80;;;;;;5052001;28;20037;-65
2023/06/15 07:41:55;;;;;;;5.82;3.10;;;22.30;84.10;;;;;;5052076;28;20036;-65
2023/06/15 07:44:21;;;;;;;5.20;3.00;;;22.40;82.60;;;;;;5051640;28;20047;-64
2023/06/15 07:46:47;;;;;;;5.40;3.10;;;22.60;80.50;;;;;;5052018;28;20029;-65
2023/06/15 07:49:12;;;;;;;7.03;3.20;;;22.80;81.00;;;;;;5051633;28;20552;-65
2023/06/15 07:51:38;;;;;;;7.20;3.08;;;22.90;80.00;;;;;;5051887;28;20091;-65
2023/06/15 07:54:04;;;;;;;5.68;2.75;;;23.00;79.40;;;;;;5051643;28;20119;-64
2023/06/15 07:56:30;;;;;;;4.70;2.90;;;23.20;78.70;;;;;;5051588;28;20063;-63
2023/06/15 07:58:55;;;;;;;5.68;2.75;;;23.20;77.10;;;;;;5051484;28;20060;-62
2023/06/15 08:01:21;;;;;;;5.80;2.83;;;23.20;77.30;;;;;;5051301;28;20041;-62
2023/06/15 08:03:47;;;;;;;6.95;3.25;;;23.10;76.00;;;;;;5051277;28;20084;-63
2023/06/15 08:06:12;;;;;;;7.95;3.17;;;23.00;77.00;;;;;;5050758;28;20040;-64
2023/06/15 08:08:38;;;;;;;6.90;2.80;;;23.20;76.10;;;;;;5051562;28;20059;-64
2023/06/15 08:11:05;;;;;;;6.40;2.80;;;23.30;74.60;;;;;;5051357;28;20033;-64
2023/06/15 08:13:31;;;;;;;8.73;3.05;;;23.40;72.30;;;;;;5051539;28;20041;-64
2023/06/15 08:15:57;;;;;;;7.20;2.70;;;23.50;71.00;;;;;;5051583;28;20390;-64
2023/06/15 08:18:23;;;;;;;5.13;2.80;;;23.50;69.60;;;;;;5051342;28;20522;-63
2023/06/15 08:20:49;;;;;;;4.10;2.83;;;23.40;68.60;;;;;;5051678;28;20037;-64
2023/06/15 08:23:15;;;;;;;7.13;3.13;;;23.50;68.90;;;;;;5051283;28;20032;-64
2023/06/15 08:25:41;;;;;;;6.45;2.70;;;23.60;68.40;;;;;;5051543;28;20167;-64
2023/06/15 08:28:07;;;;;;;6.30;2.70;;;23.80;67.60;;;;;;5051449;28;20474;-64
2023/06/15 08:30:32;;;;;;;4.10;2.75;;;23.90;67.10;;;;;;5050342;28;20041;-64
2023/06/15 08:32:58;;;;;;;4.00;2.80;;;24.00;66.10;;;;;;5051294;28;20037;-64
2023/06/15 08:35:23;;;;;;;6.15;3.10;;;24.10;65.90;;;;;;5051408;28;20402;-63
2023/06/15 08:37:49;;;;;;;3.70;2.80;;;24.20;65.50;;;;;;5051431;28;20048;-64
2023/06/15 08:40:15;;;;;;;8.02;2.75;;;24.20;65.10;;;;;;5051322;28;20058;-64
2023/06/15 08:42:41;;;;;;;4.22;2.70;;;24.10;63.00;;;;;;5051445;28;20090;-64
2023/06/15 08:45:07;;;;;;;5.70;3.10;;;23.90;63.90;;;;;;5051089;28;20033;-64
2023/06/15 08:47:36;;;;;;;3.88;2.95;;;23.90;64.70;;;;;;5050839;28;20055;-64
2023/06/15 08:50:04;;;;;;;4.78;2.55;;;23.80;64.50;;;;;;5050916;28;20095;-64
2023/06/15 08:52:34;;;;;;;4.70;2.72;;;23.80;64.00;;;;;;5051393;28;20115;-64
2023/06/15 08:55:01;;;;;;;6.40;2.75;;;24.00;62.90;;;;;;5051091;28;20410;-64
2023/06/15 08:57:28;;;;;;;3.30;2.67;;;24.10;63.50;;;;;;5050507;28;20048;-64
2023/06/15 08:59:55;;;;;;;5.40;2.92;;;24.20;62.80;;;;;;5050728;28;20052;-64
2023/06/15 09:02:23;;;;;;;5.32;2.63;;;24.40;61.50;;;;;;5051106;28;20049;-64
2023/06/15 09:04:51;;;;;;;5.13;2.83;;;24.50;61.10;;;;;;5050776;28;20484;-64
2023/06/15 09:07:18;;;;;;;5.25;2.45;;;24.40;61.60;;;;;;5051124;28;20044;-64
2023/06/15 09:10:13;;;;;;;3.45;2.95;;;24.50;60.80;;;;;;5052670;28;20064;-64
2023/06/15 09:12:48;;;;;;;6.53;2.85;;;24.50;62.50;;;;;;5054535;28;20380;-64
2023/06/15 09:15:27;;;;;;;4.38;2.72;;;24.50;60.60;;;;;;5054502;28;20048;-64
2023/06/15 09:17:55;;;;;;;8.80;3.38;;;24.50;61.20;;;;;;5054663;28;20061;-64
2023/06/15 09:20:26;;;;;;;4.85;2.97;;;24.40;61.20;;;;;;5054427;28;20438;-64
2023/06/15 09:22:54;;;;;;;;;;;24.60;61.00;;;;;;5054760;28;20041;-64
2023/06/15 09:25:20;;;;;;;7.15;2.50;;;24.80;59.80;;;;;;5054128;28;19925;-64
2023/06/15 09:28:00;;;;;;;5.72;3.20;;;25.00;59.90;;;;;;5054422;28;20037;-64
2023/06/15 09:30:33;;;;;;;8.77;3.00;;;24.90;59.30;;;;;;5054070;28;20483;-64
2023/06/15 09:33:09;;;;;;;5.95;2.80;;;24.90;59.90;;;;;;5054343;28;20482;-64
2023/06/15 09:35:35;;;;;;;6.63;2.92;;;25.00;59.50;;;;;;5052988;28;20525;-64
2023/06/15 09:38:02;;;;;;;5.35;2.67;;;25.30;59.00;;;;;;5054327;28;20083;-64
2023/06/15 09:40:30;;;;;;;5.75;2.78;;;25.40;58.70;;;;;;5053114;28;20040;-64
2023/06/15 09:42:58;;;;;;;5.85;3.00;;;25.60;58.70;;;;;;5054133;28;20040;-64
2023/06/15 09:45:24;;;;;;;4.30;3.08;;;25.70;58.20;;;;;;5052551;28;20084;-64
2023/06/15 09:47:56;;;;;;;4.30;3.00;;;25.70;58.00;;;;;;5053794;28;20041;-64
2023/06/15 09:50:28;;;;;;;5.18;2.50;;;25.70;56.50;;;;;;5053958;28;20112;-64
2023/06/15 09:52:56;;;;;;;6.13;2.97;;;25.60;56.70;;;;;;5052850;28;20112;-64
2023/06/15 09:55:23;;;;;;;3.78;2.88;;;25.70;55.60;;;;;;5053786;28;20072;-64
2023/06/15 09:57:51;;;;;;;5.43;2.80;;;25.70;54.80;;;;;;5052359;28;20095;-64
2023/06/15 10:00:17;;;;;;;3.92;2.80;;;25.80;54.30;;;;;;5065684;22;20037;-65
2023/06/15 10:02:44;;;;;;;4.80;2.63;;;25.90;53.00;;;;;;5051706;28;20037;-65
2023/06/15 10:05:13;;;;;;;5.32;2.78;;;26.00;52.00;;;;;;5043042;28;20060;-65
2023/06/15 10:07:44;;;;;;;4.53;2.72;;;26.00;52.90;;;;;;5052451;28;20060;-65
2023/06/15 10:10:11;;;;;;;;;;;26.10;52.30;;;;;;5053940;28;20047;-65
2023/06/15 10:12:41;;;;;;;7.30;3.05;;;26.00;53.90;;;;;;5053128;28;19917;-65
2023/06/15 10:15:15;;;;;;;5.60;2.95;;;26.00;53.10;;;;;;5053055;28;20408;-65
2023/06/15 10:17:46;;;;;;;11.07;2.70;;;26.10;51.40;;;;;;5053641;28;20041;-65
2023/06/15 10:20:17;;;;;;;6.50;2.70;;;26.20;52.20;;;;;;5051105;28;20041;-65
2023/06/15 10:23:07;;;;;;;4.78;2.65;;;26.30;51.70;;;;;;5053301;28;20041;-65
2023/06/15 10:25:34;;;;;;;7.93;3.03;;;26.30;49.20;;;;;;5053014;28;20063;-65
2023/06/15 10:28:09;;;;;;;8.77;2.80;;;26.20;49.00;;;;;;5042187;28;20041;-65
2023/06/15 10:30:43;;;;;;;5.30;2.80;;;26.30;49.10;;;;;;5032996;28;20037;-65
2023/06/15 10:33:18;;;;;;;4.63;2.85;;;26.50;49.30;;;;;;5031926;28;20042;-65
2023/06/15 10:36:22;;;;;;;4.30;2.70;;;26.70;48.80;;;;;;5031861;28;20050;-65
2023/06/15 10:39:03;;;;;;;4.90;2.83;;;26.90;48.60;;;;;;4975686;28;20057;-65
2023/06/15 10:41:29;;;;;;;7.10;3.00;;;27.00;47.50;;;;;;5031342;28;20491;-65
2023/06/15 10:44:00;;;;;;;6.57;2.53;;;27.00;48.60;;;;;;5031499;28;20038;-66
2023/06/15 10:46:27;;;;;;;;;;;26.90;49.50;;;;;;5032570;28;20495;-65
2023/06/15 10:48:53;;;;;;;4.22;2.60;;;26.90;48.20;;;;;;5031883;28;20356;-65
2023/06/15 10:51:21;;;;;;;5.15;3.10;;;27.00;47.20;;;;;;5031721;28;20042;-66
2023/06/15 10:53:47;;;;;;;5.00;2.70;;;27.20;45.60;;;;;;5030884;28;20045;-65
2023/06/15 10:56:19;;;;;;;3.80;2.80;;;27.20;45.40;;;;;;5032561;28;20395;-65
2023/06/15 10:59:03;;;;;;;5.35;2.85;;;27.00;46.30;;;;;;5032586;28;20069;-65
2023/06/15 11:01:33;;;;;;;4.82;3.00;;;26.80;49.50;;;;;;5031607;28;20084;-65
2023/06/15 11:04:20;;;;;;;5.95;2.97;;;26.80;48.10;;;;;;5032438;28;20056;-65
2023/06/15 11:06:55;;;;;;;4.63;2.80;;;26.80;48.50;;;;;;5017483;28;20053;-66
2023/06/15 11:09:25;;;;;;;5.60;2.70;;;26.80;48.20;;;;;;5032442;28;20073;-66
2023/06/15 11:11:50;;;;;;;4.35;2.83;;;26.90;46.60;;;;;;5032595;28;20029;-66
2023/06/15 11:14:19;;;;;;;5.88;2.72;;;27.10;46.00;;;;;;5032354;28;20048;-65
2023/06/15 11:16:45;;;;;;;5.05;2.85;;;27.20;46.90;;;;;;5032493;28;20045;-65
2023/06/15 11:19:11;;;;;;;6.03;3.25;;;27.40;46.90;;;;;;5031288;28;20072;-66
2023/06/15 11:21:40;;;;;;;5.72;3.28;;;27.60;46.40;;;;;;5032261;28;20116;-65
2023/06/15 11:24:06;;;;;;;5.22;2.90;;;27.70;45.90;;;;;;5031892;28;20092;-65
2023/06/15 11:26:34;;;;;;;3.90;2.70;;;27.90;45.00;;;;;;5032377;28;20052;-65
2023/06/15 11:29:03;;;;;;;7.30;3.30;;;27.90;45.40;;;;;;5032056;28;20507;-65
2023/06/15 11:31:31;;;;;;;5.07;2.90;;;27.90;46.90;;;;;;5030276;28;20069;-65
2023/06/15 11:33:57;;;;;;;6.60;3.05;;;27.90;46.80;;;;;;5031902;28;20049;-65
2023/06/15 11:36:23;;;;;;;3.63;3.10;;;27.80;46.10;;;;;;5031266;28;20159;-65
2023/06/15 11:38:48;;;;;;;4.82;3.30;;;27.70;46.10;;;;;;5032268;28;20075;-65
2023/06/15 11:41:14;;;;;;;4.20;3.00;;;27.70;46.20;;;;;;5032167;28;20406;-65
2023/06/15 11:43:41;;;;;;;7.00;3.20;;;27.80;45.70;;;;;;5031385;28;20045;-65
2023/06/15 11:46:17;;;;;;;4.03;2.75;;;27.80;45.80;;;;;;5030395;28;20075;-65
2023/06/15 11:48:48;;;;;;;3.67;2.70;;;27.60;45.70;;;;;;5030661;28;20041;-65
2023/06/15 11:51:15;;;;;;;;;;;27.50;46.30;;;;;;5032601;28;20092;-65
2023/06/15 11:53:41;;;;;;;5.13;3.30;;;27.60;46.10;;;;;;5031396;28;19917;-65
2023/06/15 11:56:08;;;;;;;4.38;3.10;;;27.60;46.90;;;;;;5031647;28;20045;-65
2023/06/15 11:58:34;;;;;;;6.28;2.72;;;27.70;46.80;;;;;;5031837;28;20046;-65
2023/06/15 12:01:01;;;;;;;3.58;2.65;;;27.70;46.70;;;;;;5030007;28;20051;-65
2023/06/15 12:03:27;;;;;;;5.40;2.90;;;27.70;46.80;;;;;;5029883;28;20049;-65
2023/06/15 12:05:57;;;;;;;5.78;2.95;;;27.70;46.20;;;;;;5032022;28;20052;-65
2023/06/15 12:08:24;;;;;;;4.95;3.00;;;27.70;46.00;;;;;;5030047;28;20526;-65
2023/06/15 12:10:51;;;;;;;5.20;3.15;;;27.60;46.40;;;;;;5031868;28;20037;-65
2023/06/15 12:13:17;;;;;;;6.30;2.80;;;27.50;46.10;;;;;;5031330;28;20033;-65
2023/06/15 12:15:46;;;;;;;3.42;3.00;;;27.30;44.70;;;;;;5029985;28;20115;-65
2023/06/15 12:18:12;;;;;;;4.67;3.23;;;27.20;44.70;;;;;;5029611;28;20037;-65
2023/06/15 12:20:38;;;;;;;6.78;2.72;;;27.20;45.10;;;;;;5030283;28;20106;-65
2023/06/15 12:23:07;;;;;;;5.07;3.00;;;27.30;45.30;;;;;;5029772;28;20045;-65
2023/06/15 12:25:46;;;;;;;8.82;3.45;;;27.50;45.70;;;;;;5031495;28;20046;-65
2023/06/15 12:28:21;;;;;;;4.50;2.87;;;27.70;44.70;;;;;;5031610;28;20121;-65
2023/06/15 12:30:47;;;;;;;5.32;2.97;;;27.80;44.00;;;;;;5030538;28;20056;-65
2023/06/15 12:33:30;;;;;;;6.35;3.17;;;27.90;43.80;;;;;;5029401;28;20045;-66
2023/06/15 12:35:57;;;;;;;6.20;3.05;;;28.00;44.50;;;;;;5031738;28;20432;-65
2023/06/15 12:38:24;;;;;;;8.35;2.90;;;27.90;44.80;;;;;;5029866;28;20040;-66
2023/06/15 12:40:52;;;;;;;6.03;2.80;;;27.90;45.70;;;;;;5031391;28;20045;-66
2023/06/15 12:43:18;;;;;;;5.25;2.78;;;27.70;45.60;;;;;;5031605;28;20037;-65
2023/06/15 12:45:44;;;;;;;3.92;2.90;;;27.80;45.00;;;;;;5035387;28;20042;-65
2023/06/15 12:48:10;;;;;;;4.18;2.90;;;27.80;44.90;;;;;;5034947;28;20044;-66
2023/06/15 12:50:35;;;;;;;7.78;3.30;;;27.80;44.30;;;;;;5033667;28;20037;-65